Time;durP1;ratioP1;P1;durP2;ratioP2;P2;SDS_P1;SDS_P2;PMS_P1;PMS_P2;Temp;Humidity;BMP_temperature;BMP_pressure;BME280_temperature;BME280_humidity;BME280_pressure;Samples;Min_cycle;Max_cycle;Signal;HPM_P1;HPM_P2
2021/01/12 00:00:19;;;;;;;29.13;26.53;;;;;;;;;;5032908;28;20469;-65
2021/01/12 00:02:45;;;;;;;29.47;26.67;;;;;;;;;;5033056;28;20479;-65
2021/01/12 00:05:13;;;;;;;31.47;28.37;;;;;;;;;;5031923;28;20847;-65
2021/01/12 00:07:40;;;;;;;31.07;27.87;;;;;;;;;;5032660;28;20460;-66
2021/01/12 00:10:07;;;;;;;30.23;27.27;;;;;;;;;;5031004;28;20464;-65
2021/01/12 00:12:34;;;;;;;31.13;28.20;;;;;;;;;;5031469;28;20567;-65
2021/01/12 00:15:01;;;;;;;28.83;25.87;;;;;;;;;;5031564;28;20481;-65
2021/01/12 00:17:28;;;;;;;31.53;28.47;;;;;;;;;;5032742;28;20494;-65
2021/01/12 00:19:54;;;;;;;28.70;25.77;;;;;;;;;;5030121;28;20990;-68
2021/01/12 00:22:22;;;;;;;29.23;26.17;;;;;;;;;;5031775;28;20468;-65
2021/01/12 00:24:49;;;;;;;32.17;29.10;;;;;;;;;;5032495;28;20454;-70
2021/01/12 00:27:16;;;;;;;30.30;27.47;;;;;;;;;;5031715;28;20473;-65
2021/01/12 00:29:43;;;;;;;31.40;28.40;;;;;;;;;;5031934;28;20451;-65
2021/01/12 00:32:15;;;;;;;28.43;25.47;;;;;;;;;;5028215;28;20956;-65
2021/01/12 00:34:41;;;;;;;30.40;27.20;;;;;;;;;;5026108;28;20483;-66
2021/01/12 00:37:08;;;;;;;29.77;26.67;;;;;;;;;;5030804;28;20560;-66
2021/01/12 00:39:35;;;;;;;28.07;25.17;;;;;;;;;;5025566;28;20470;-65
2021/01/12 00:42:02;;;;;;;30.03;27.03;;;;;;;;;;5027866;28;20836;-65
2021/01/12 00:44:29;;;;;;;29.57;26.37;;;;;;;;;;5031737;28;20995;-65
2021/01/12 00:46:56;;;;;;;28.77;26.10;;;;;;;;;;5030276;28;20464;-66
2021/01/12 00:49:24;;;;;;;31.67;28.60;;;;;;;;;;5024314;28;20472;-65
2021/01/12 00:51:51;;;;;;;29.63;26.53;;;;;;;;;;5032326;28;20456;-65
2021/01/12 00:54:18;;;;;;;32.73;29.53;;;;;;;;;;5030564;28;20504;-68
2021/01/12 00:56:46;;;;;;;31.47;28.27;;;;;;;;;;5032030;28;20445;-70
2021/01/12 00:59:13;;;;;;;22.13;19.97;;;;;;;;;;5029068;28;20476;-67
2021/01/12 01:01:40;;;;;;;30.30;27.20;;;;;;;;;;5031937;28;20952;-68
2021/01/12 01:04:07;;;;;;;31.43;28.53;;;;;;;;;;5031031;28;20930;-65
2021/01/12 01:06:33;;;;;;;30.57;27.47;;;;;;;;;;5030792;28;20986;-65
2021/01/12 01:09:00;;;;;;;31.13;27.83;;;;;;;;;;5032126;28;20868;-66
2021/01/12 01:11:27;;;;;;;28.27;25.23;;;;;;;;;;5031605;28;20453;-65
2021/01/12 01:13:54;;;;;;;27.10;24.20;;;;;;;;;;5030124;28;20492;-68
2021/01/12 01:16:21;;;;;;;27.33;24.80;;;;;;;;;;5029557;28;20502;-65
2021/01/12 01:18:47;;;;;;;29.40;26.23;;;;;;;;;;5031432;28;20953;-66
2021/01/12 01:21:14;;;;;;;26.93;24.53;;;;;;;;;;5031401;28;20472;-68
2021/01/12 01:23:41;;;;;;;30.27;27.57;;;;;;;;;;5031963;28;20465;-65
2021/01/12 01:26:07;;;;;;;24.53;22.20;;;;;;;;;;5029828;28;20557;-65
2021/01/12 01:28:34;;;;;;;24.27;21.87;;;;;;;;;;5030493;28;20441;-66
2021/01/12 01:31:01;;;;;;;23.40;21.00;;;;;;;;;;5017639;28;20854;-67
2021/01/12 01:33:28;;;;;;;22.90;20.80;;;;;;;;;;5015173;28;20502;-67
2021/01/12 01:35:55;;;;;;;25.63;23.23;;;;;;;;;;5031607;28;20500;-65
2021/01/12 01:38:21;;;;;;;24.10;22.00;;;;;;;;;;5029487;28;20829;-65
2021/01/12 01:40:48;;;;;;;22.53;20.37;;;;;;;;;;5029328;28;20465;-67
2021/01/12 01:43:21;;;;;;;21.90;19.80;;;;;;;;;;5030925;28;20473;-64
2021/01/12 01:45:47;;;;;;;21.73;19.73;;;;;;;;;;5030054;28;20452;-65
2021/01/12 01:48:15;;;;;;;22.43;20.33;;;;;;;;;;5029916;28;20487;-66
2021/01/12 01:50:42;;;;;;;23.53;21.43;;;;;;;;;;5030617;28;20827;-67
2021/01/12 01:53:10;;;;;;;21.93;19.90;;;;;;;;;;5031196;28;20487;-65
2021/01/12 01:55:37;;;;;;;21.20;19.30;;;;;;;;;;5031053;28;20484;-65
2021/01/12 01:58:04;;;;;;;21.83;19.83;;;;;;;;;;5031303;28;20453;-65
2021/01/12 02:00:31;;;;;;;22.47;20.40;;;;;;;;;;5030583;28;20507;-65
2021/01/12 02:03:02;;;;;;;19.00;17.20;;;;;;;;;;5030568;28;20534;-66
2021/01/12 02:05:31;;;;;;;21.80;19.83;;;;;;;;;;5030303;28;20453;-64
2021/01/12 02:07:59;;;;;;;21.00;19.10;;;;;;;;;;5030912;28;20467;-65
2021/01/12 02:10:26;;;;;;;22.90;20.80;;;;;;;;;;5031256;28;20467;-65
2021/01/12 02:12:56;;;;;;;22.57;20.47;;;;;;;;;;5034566;28;21177;-66
2021/01/12 02:15:23;;;;;;;20.57;18.57;;;;;;;;;;5032011;28;20498;-65
2021/01/12 02:17:51;;;;;;;20.80;18.90;;;;;;;;;;5065722;23;20489;-73
2021/01/12 02:20:21;;;;;;;19.90;18.00;;;;;;;;;;5036330;28;20460;-73
2021/01/12 02:23:03;;;;;;;19.37;17.70;;;;;;;;;;5036488;28;20870;-74
2021/01/12 02:25:31;;;;;;;18.67;16.87;;;;;;;;;;5034569;28;20452;-74
2021/01/12 02:27:58;;;;;;;15.97;14.50;;;;;;;;;;5034299;28;20817;-74
2021/01/12 02:30:24;;;;;;;17.67;15.87;;;;;;;;;;5032069;28;20959;-74
2021/01/12 02:32:51;;;;;;;17.93;16.33;;;;;;;;;;5033622;28;20456;-73
2021/01/12 02:35:19;;;;;;;14.63;13.20;;;;;;;;;;5033590;28;20590;-73
2021/01/12 02:37:47;;;;;;;20.50;18.60;;;;;;;;;;5033810;28;20468;-73
2021/01/12 02:40:14;;;;;;;21.27;19.37;;;;;;;;;;5033356;28;20465;-74
2021/01/12 02:42:43;;;;;;;19.97;18.20;;;;;;;;;;5033940;28;20449;-74
2021/01/12 02:45:10;;;;;;;22.00;20.10;;;;;;;;;;5033332;28;20484;-73
2021/01/12 02:47:37;;;;;;;22.33;20.20;;;;;;;;;;5033145;28;21025;-74
2021/01/12 02:50:04;;;;;;;21.47;19.37;;;;;;;;;;5033443;28;20494;-74
2021/01/12 02:52:31;;;;;;;18.83;16.93;;;;;;;;;;5032906;28;20834;-74
2021/01/12 02:54:57;;;;;;;19.30;17.40;;;;;;;;;;5030886;28;20484;-74
2021/01/12 02:57:24;;;;;;;18.77;16.87;;;;;;;;;;5026238;28;20507;-73
2021/01/12 02:59:51;;;;;;;18.93;17.03;;;;;;;;;;5032925;28;20480;-73
2021/01/12 03:02:18;;;;;;;21.20;19.10;;;;;;;;;;5033297;28;20817;-72
2021/01/12 03:04:45;;;;;;;20.20;18.40;;;;;;;;;;5032178;28;20457;-73
2021/01/12 03:07:11;;;;;;;20.40;18.50;;;;;;;;;;5033474;28;20495;-72
2021/01/12 03:09:38;;;;;;;21.03;19.03;;;;;;;;;;5033055;28;20472;-73
2021/01/12 03:12:05;;;;;;;20.53;18.50;;;;;;;;;;5032463;28;20514;-73
2021/01/12 03:14:31;;;;;;;18.50;16.60;;;;;;;;;;5033694;28;20481;-73
2021/01/12 03:16:59;;;;;;;19.87;18.07;;;;;;;;;;5032193;28;20499;-73
2021/01/12 03:19:26;;;;;;;20.37;18.37;;;;;;;;;;5034282;28;20820;-73
2021/01/12 03:21:53;;;;;;;20.80;18.87;;;;;;;;;;5032670;28;20473;-73
2021/01/12 03:24:19;;;;;;;19.33;17.50;;;;;;;;;;5035487;28;20491;-73
2021/01/12 03:26:46;;;;;;;17.93;16.23;;;;;;;;;;5032972;28;20496;-73
2021/01/12 03:29:12;;;;;;;20.40;18.50;;;;;;;;;;5032602;28;20491;-73
2021/01/12 03:31:39;;;;;;;20.30;18.60;;;;;;;;;;5032784;28;20452;-74
2021/01/12 03:34:06;;;;;;;19.43;17.53;;;;;;;;;;5033440;28;20472;-73
2021/01/12 03:36:33;;;;;;;16.77;15.30;;;;;;;;;;5031935;28;21018;-76
2021/01/12 03:38:59;;;;;;;21.23;19.20;;;;;;;;;;5017059;28;20475;-74
2021/01/12 03:41:26;;;;;;;20.97;19.17;;;;;;;;;;5033262;28;20943;-74
2021/01/12 03:43:53;;;;;;;18.10;16.60;;;;;;;;;;5029556;28;20465;-74
2021/01/12 03:46:20;;;;;;;18.73;17.20;;;;;;;;;;5032199;28;20444;-74
2021/01/12 03:48:46;;;;;;;17.40;15.80;;;;;;;;;;5031473;28;20469;-72
2021/01/12 03:51:14;;;;;;;19.07;17.33;;;;;;;;;;5031743;28;20449;-75
2021/01/12 03:53:40;;;;;;;17.17;15.70;;;;;;;;;;5031788;28;20467;-73
2021/01/12 03:56:07;;;;;;;17.23;15.70;;;;;;;;;;5031880;28;20488;-74
2021/01/12 03:58:35;;;;;;;18.50;16.80;;;;;;;;;;5031303;28;20500;-74
2021/01/12 04:01:02;;;;;;;19.83;18.13;;;;;;;;;;5031476;28;20603;-73
2021/01/12 04:03:28;;;;;;;19.00;17.30;;;;;;;;;;5031746;28;20475;-73
2021/01/12 04:05:56;;;;;;;18.30;16.83;;;;;;;;;;5031294;28;20462;-72
2021/01/12 04:08:23;;;;;;;18.60;17.00;;;;;;;;;;5017498;28;20484;-73
2021/01/12 04:10:50;;;;;;;18.33;16.83;;;;;;;;;;5032929;28;20959;-74
2021/01/12 04:13:16;;;;;;;19.80;18.10;;;;;;;;;;5032891;28;20467;-73
2021/01/12 04:15:43;;;;;;;18.80;17.20;;;;;;;;;;5033850;28;20487;-73
2021/01/12 04:18:10;;;;;;;20.03;18.23;;;;;;;;;;5032366;28;20495;-73
2021/01/12 04:20:36;;;;;;;19.70;18.00;;;;;;;;;;5023167;28;20472;-72
2021/01/12 04:23:03;;;;;;;19.40;17.70;;;;;;;;;;5026197;28;20479;-73
2021/01/12 04:25:30;;;;;;;18.57;16.93;;;;;;;;;;5033132;28;20449;-72
2021/01/12 04:27:57;;;;;;;20.20;18.40;;;;;;;;;;5032627;28;20480;-73
2021/01/12 04:30:24;;;;;;;20.77;18.87;;;;;;;;;;5032374;28;20453;-72
2021/01/12 04:32:50;;;;;;;20.37;18.57;;;;;;;;;;5031964;28;20483;-74
2021/01/12 04:35:17;;;;;;;20.73;18.93;;;;;;;;;;5030362;28;20484;-74
2021/01/12 04:37:43;;;;;;;21.20;19.30;;;;;;;;;;5030484;28;20495;-73
2021/01/12 04:40:10;;;;;;;20.63;18.83;;;;;;;;;;5031482;28;20452;-73
2021/01/12 04:42:38;;;;;;;20.07;18.27;;;;;;;;;;5030174;28;20471;-73
2021/01/12 04:45:06;;;;;;;18.70;17.00;;;;;;;;;;5031836;28;20448;-75
2021/01/12 04:47:32;;;;;;;20.00;18.00;;;;;;;;;;5031463;28;20484;-74
2021/01/12 04:50:02;;;;;;;19.00;17.30;;;;;;;;;;5032028;28;20448;-75
2021/01/12 04:52:28;;;;;;;21.30;19.20;;;;;;;;;;5024305;28;20457;-74
2021/01/12 04:54:55;;;;;;;19.63;17.63;;;;;;;;;;5012669;28;20539;-74
2021/01/12 04:57:21;;;;;;;14.40;13.10;;;;;;;;;;5012326;28;20512;-75
2021/01/12 04:59:49;;;;;;;14.13;12.83;;;;;;;;;;5031839;28;20444;-74
2021/01/12 05:02:15;;;;;;;10.93;9.83;;;;;;;;;;5031331;28;20472;-74
2021/01/12 05:04:42;;;;;;;7.83;7.13;;;;;;;;;;5030361;28;20951;-74
2021/01/12 05:07:09;;;;;;;5.60;5.20;;;;;;;;;;5031502;28;20471;-74
2021/01/12 05:09:36;;;;;;;5.40;4.77;;;;;;;;;;5031228;28;21066;-74
2021/01/12 05:12:03;;;;;;;5.50;5.10;;;;;;;;;;5031815;28;20448;-73
2021/01/12 05:14:31;;;;;;;6.60;5.17;;;;;;;;;;5031167;28;20906;-74
2021/01/12 05:16:58;;;;;;;5.30;4.90;;;;;;;;;;5032085;28;20488;-74
2021/01/12 05:19:26;;;;;;;5.70;5.30;;;;;;;;;;5031489;28;20476;-74
2021/01/12 05:21:52;;;;;;;5.83;5.20;;;;;;;;;;5031918;28;20453;-73
2021/01/12 05:24:20;;;;;;;5.63;5.23;;;;;;;;;;5030910;28;20464;-73
2021/01/12 05:26:47;;;;;;;6.07;5.47;;;;;;;;;;5013446;28;20488;-73
2021/01/12 05:29:14;;;;;;;5.90;5.30;;;;;;;;;;5026034;28;20464;-74
2021/01/12 05:31:43;;;;;;;5.97;4.87;;;;;;;;;;5032354;28;20444;-73
2021/01/12 05:34:11;;;;;;;5.83;5.33;;;;;;;;;;5020350;28;20454;-73
2021/01/12 05:36:47;;;;;;;5.87;5.30;;;;;;;;;;5016831;28;20457;-73
2021/01/12 05:39:16;;;;;;;5.93;5.17;;;;;;;;;;5018390;28;20465;-73
2021/01/12 05:41:43;;;;;;;5.80;5.27;;;;;;;;;;5018491;28;20835;-73
2021/01/12 05:44:13;;;;;;;6.80;4.90;;;;;;;;;;5031835;28;20453;-75
2021/01/12 05:46:40;;;;;;;5.13;4.80;;;;;;;;;;5035271;28;21263;-74
2021/01/12 05:49:09;;;;;;;7.20;6.13;;;;;;;;;;5034290;28;20828;-74
2021/01/12 05:51:42;;;;;;;5.43;4.77;;;;;;;;;;5017058;28;20445;-75
2021/01/12 05:54:10;;;;;;;6.87;5.70;;;;;;;;;;5019790;28;20470;-75
2021/01/12 05:56:38;;;;;;;6.47;5.83;;;;;;;;;;5019100;28;20860;-74
2021/01/12 05:59:08;;;;;;;6.67;5.87;;;;;;;;;;5036769;28;20479;-75
2021/01/12 06:01:47;;;;;;;6.50;5.90;;;;;;;;;;5037072;28;20521;-74
2021/01/12 06:04:14;;;;;;;9.20;6.30;;;;;;;;;;5035523;28;20459;-72
2021/01/12 06:06:42;;;;;;;9.40;5.90;;;;;;;;;;5035906;28;20468;-73
2021/01/12 06:09:09;;;;;;;3.80;3.20;;;;;;;;;;5028758;28;20465;-72
2021/01/12 06:11:37;;;;;;;3.70;3.10;;;;;;;;;;5018733;28;20445;-73
2021/01/12 06:14:07;;;;;;;4.80;2.93;;;;;;;;;;5023648;28;20464;-73
2021/01/12 06:16:35;;;;;;;3.00;2.73;;;;;;;;;;5031711;28;21006;-74
2021/01/12 06:19:06;;;;;;;2.20;2.10;;;;;;;;;;5016659;28;20440;-73
2021/01/12 06:21:34;;;;;;;2.60;2.40;;;;;;;;;;5020825;28;20453;-75
2021/01/12 06:24:04;;;;;;;3.50;2.30;;;;;;;;;;5037765;28;20514;-75
2021/01/12 06:26:31;;;;;;;2.63;2.37;;;;;;;;;;5037543;28;20448;-76
2021/01/12 06:28:58;;;;;;;2.80;2.60;;;;;;;;;;5045918;28;20490;-75
2021/01/12 06:31:24;;;;;;;2.57;2.30;;;;;;;;;;5054969;28;20455;-74
2021/01/12 06:33:58;;;;;;;2.93;2.67;;;;;;;;;;5052955;28;20452;-73
2021/01/12 06:36:25;;;;;;;2.87;2.67;;;;;;;;;;5053511;28;20476;-74
2021/01/12 06:38:52;;;;;;;3.40;2.80;;;;;;;;;;5054664;28;20453;-74
2021/01/12 06:41:21;;;;;;;2.80;2.53;;;;;;;;;;5055708;28;20475;-73
2021/01/12 06:43:49;;;;;;;2.03;1.93;;;;;;;;;;5055517;28;20475;-74
2021/01/12 06:46:16;;;;;;;4.33;2.57;;;;;;;;;;5050968;28;20510;-75
2021/01/12 06:48:43;;;;;;;2.63;2.43;;;;;;;;;;5041699;28;20491;-74
2021/01/12 06:51:10;;;;;;;3.90;2.63;;;;;;;;;;5053424;28;20445;-75
2021/01/12 06:53:37;;;;;;;2.90;2.50;;;;;;;;;;5053172;28;20852;-74
2021/01/12 06:56:07;;;;;;;2.37;2.27;;;;;;;;;;5036147;28;20486;-73
2021/01/12 06:58:34;;;;;;;3.90;2.40;;;;;;;;;;5045964;28;20475;-75
2021/01/12 07:01:01;;;;;;;2.50;2.30;;;;;;;;;;5055517;28;20484;-75
2021/01/12 07:03:29;;;;;;;4.77;2.73;;;;;;;;;;5055061;28;20487;-75
2021/01/12 07:05:59;;;;;;;3.50;2.63;;;;;;;;;;5046782;28;20465;-74
2021/01/12 07:08:26;;;;;;;3.30;2.40;;;;;;;;;;5056434;28;20495;-76
2021/01/12 07:10:53;;;;;;;5.27;3.03;;;;;;;;;;5036692;28;20451;-73
2021/01/12 07:13:20;;;;;;;6.53;3.60;;;;;;;;;;5028820;28;20463;-74
2021/01/12 07:15:47;;;;;;;5.03;3.20;;;;;;;;;;5035927;28;20543;-74
2021/01/12 07:18:15;;;;;;;7.90;3.10;;;;;;;;;;5035749;28;20480;-71
2021/01/12 07:20:41;;;;;;;3.57;2.03;;;;;;;;;;5034577;28;20492;-72
2021/01/12 07:23:09;;;;;;;3.40;2.00;;;;;;;;;;5028753;28;20963;-74
2021/01/12 07:25:36;;;;;;;2.60;2.10;;;;;;;;;;5034440;28;20525;-72
2021/01/12 07:28:05;;;;;;;5.23;2.63;;;;;;;;;;5033372;28;20856;-72
2021/01/12 07:30:32;;;;;;;5.93;2.73;;;;;;;;;;5033836;28;20461;-72
2021/01/12 07:33:00;;;;;;;3.30;3.10;;;;;;;;;;5032209;28;20474;-74
2021/01/12 07:35:27;;;;;;;3.73;3.43;;;;;;;;;;5032497;28;20489;-73
2021/01/12 07:37:54;;;;;;;3.50;3.30;;;;;;;;;;5033094;28;21216;-72
2021/01/12 07:40:20;;;;;;;2.60;2.40;;;;;;;;;;5014131;28;20461;-72
2021/01/12 07:42:51;;;;;;;1.93;1.67;;;;;;;;;;5016224;28;20828;-73
2021/01/12 07:45:18;;;;;;;2.37;1.10;;;;;;;;;;5014518;28;20462;-72
2021/01/12 07:47:45;;;;;;;2.03;1.30;;;;;;;;;;5015482;28;20924;-73
2021/01/12 07:50:13;;;;;;;1.20;0.93;;;;;;;;;;5033085;28;20465;-72
2021/01/12 07:52:40;;;;;;;1.50;0.90;;;;;;;;;;5032651;28;20476;-72
2021/01/12 07:55:07;;;;;;;1.30;0.83;;;;;;;;;;5033284;28;20476;-72
2021/01/12 07:57:34;;;;;;;1.67;0.93;;;;;;;;;;5032627;28;20526;-72
2021/01/12 08:00:00;;;;;;;1.70;0.90;;;;;;;;;;5032822;28;20464;-72
2021/01/12 08:02:27;;;;;;;1.60;1.00;;;;;;;;;;5025237;28;20465;-73
2021/01/12 08:04:54;;;;;;;2.80;1.00;;;;;;;;;;5020135;28;20449;-72
2021/01/12 08:07:25;;;;;;;2.40;0.90;;;;;;;;;;5033370;28;20477;-72
2021/01/12 08:09:55;;;;;;;1.47;0.80;;;;;;;;;;5013101;28;20465;-73
2021/01/12 08:12:22;;;;;;;5.20;0.97;;;;;;;;;;5013601;28;20418;-72
2021/01/12 08:14:49;;;;;;;1.77;1.03;;;;;;;;;;5013426;28;20486;-72
2021/01/12 08:17:20;;;;;;;3.60;1.07;;;;;;;;;;5022982;28;20480;-73
2021/01/12 08:19:46;;;;;;;1.93;1.00;;;;;;;;;;5032929;28;20441;-73
2021/01/12 08:22:16;;;;;;;2.63;1.40;;;;;;;;;;5033226;28;20448;-72
2021/01/12 08:24:44;;;;;;;5.03;4.53;;;;;;;;;;5029284;28;20465;-73
2021/01/12 08:27:11;;;;;;;7.10;3.87;;;;;;;;;;5029765;28;20850;-73
2021/01/12 08:29:38;;;;;;;5.00;3.00;;;;;;;;;;5031959;28;20460;-72
2021/01/12 08:32:06;;;;;;;4.73;3.03;;;;;;;;;;5031936;28;20444;-73
2021/01/12 08:34:41;;;;;;;5.67;3.30;;;;;;;;;;5020791;28;20512;-68
2021/01/12 08:37:09;;;;;;;8.03;3.43;;;;;;;;;;5020690;28;20476;-74
2021/01/12 08:39:36;;;;;;;5.00;3.53;;;;;;;;;;5032155;28;20449;-72
2021/01/12 08:42:07;;;;;;;5.90;3.80;;;;;;;;;;5032305;28;20461;-74
2021/01/12 08:44:40;;;;;;;8.20;3.30;;;;;;;;;;5032809;28;20451;-74
2021/01/12 08:47:06;;;;;;;8.40;3.70;;;;;;;;;;5031749;28;20477;-72
2021/01/12 08:49:33;;;;;;;4.10;3.27;;;;;;;;;;5032327;28;20495;-72
2021/01/12 08:52:01;;;;;;;5.97;4.30;;;;;;;;;;5016189;28;20967;-72
2021/01/12 08:54:28;;;;;;;4.73;3.53;;;;;;;;;;5032631;28;20588;-73
2021/01/12 08:56:56;;;;;;;6.70;3.50;;;;;;;;;;5035173;28;20467;-73
2021/01/12 08:59:28;;;;;;;5.43;3.37;;;;;;;;;;5035813;28;20889;-73
2021/01/12 09:01:56;;;;;;;6.00;3.47;;;;;;;;;;5033863;28;20449;-73
2021/01/12 09:04:23;;;;;;;8.97;3.90;;;;;;;;;;5041083;28;20830;-73
2021/01/12 09:07:00;;;;;;;5.77;3.43;;;;;;;;;;5040623;28;20496;-73
2021/01/12 09:09:26;;;;;;;5.57;3.77;;;;;;;;;;5030147;28;20472;-73
2021/01/12 09:11:53;;;;;;;10.33;4.00;;;;;;;;;;5037889;28;20483;-73
2021/01/12 09:14:20;;;;;;;5.83;3.40;;;;;;;;;;5032944;28;20448;-73
2021/01/12 09:16:48;;;;;;;4.80;3.23;;;;;;;;;;5023995;28;20492;-74
2021/01/12 09:19:15;;;;;;;5.10;3.30;;;;;;;;;;5030737;28;20460;-73
2021/01/12 09:21:43;;;;;;;4.73;3.00;;;;;;;;;;5039112;28;20447;-73
2021/01/12 09:24:10;;;;;;;4.40;3.30;;;;;;;;;;5042527;28;20449;-73
2021/01/12 09:26:36;;;;;;;7.33;3.43;;;;;;;;;;5042420;28;20468;-73
2021/01/12 09:29:04;;;;;;;5.10;2.90;;;;;;;;;;5042744;28;20448;-73
2021/01/12 09:31:30;;;;;;;8.07;3.17;;;;;;;;;;5041818;28;20453;-73
2021/01/12 09:33:58;;;;;;;3.80;3.03;;;;;;;;;;5037443;28;20444;-74
2021/01/12 09:36:32;;;;;;;6.17;3.30;;;;;;;;;;5035502;28;20853;-74
2021/01/12 09:38:58;;;;;;;6.43;3.63;;;;;;;;;;5035089;28;20998;-73
2021/01/12 09:41:25;;;;;;;8.53;3.23;;;;;;;;;;5034789;28;20453;-73
2021/01/12 09:43:53;;;;;;;3.03;2.60;;;;;;;;;;5035202;28;20444;-73
2021/01/12 09:46:20;;;;;;;3.67;2.83;;;;;;;;;;5034146;28;20448;-73
2021/01/12 09:48:47;;;;;;;5.47;3.07;;;;;;;;;;5040883;28;21000;-73
2021/01/12 09:51:15;;;;;;;5.30;2.40;;;;;;;;;;5044717;28;20457;-68
2021/01/12 09:53:41;;;;;;;4.73;2.80;;;;;;;;;;5034467;28;20448;-73
2021/01/12 09:56:10;;;;;;;3.53;2.70;;;;;;;;;;5034547;28;20878;-73
2021/01/12 09:58:37;;;;;;;5.40;2.40;;;;;;;;;;5034431;28;20486;-74
2021/01/12 10:01:04;;;;;;;6.57;2.30;;;;;;;;;;5034441;28;20456;-73
2021/01/12 10:03:32;;;;;;;3.10;1.87;;;;;;;;;;5034694;28;20452;-73
2021/01/12 10:05:58;;;;;;;4.50;2.10;;;;;;;;;;5041406;28;20460;-73
2021/01/12 10:08:26;;;;;;;7.33;2.00;;;;;;;;;;5034037;28;20992;-72
2021/01/12 10:10:53;;;;;;;4.23;1.80;;;;;;;;;;5034349;28;21009;-72
2021/01/12 10:13:20;;;;;;;4.00;1.80;;;;;;;;;;5034631;28;20457;-73
2021/01/12 10:15:46;;;;;;;2.90;1.63;;;;;;;;;;5033991;28;20480;-71
2021/01/12 10:18:13;;;;;;;2.80;1.53;;;;;;;;;;5033818;28;20602;-72
2021/01/12 10:20:40;;;;;;;4.73;1.57;;;;;;;;;;5034130;28;20448;-72
2021/01/12 10:23:06;;;;;;;3.10;1.60;;;;;;;;;;5034498;28;20449;-71
2021/01/12 10:25:34;;;;;;;2.33;1.63;;;;;;;;;;5034473;28;20455;-72
2021/01/12 10:28:02;;;;;;;3.53;1.60;;;;;;;;;;5034149;28;20975;-71
2021/01/12 10:30:28;;;;;;;2.83;1.80;;;;;;;;;;5034043;28;20464;-72
2021/01/12 10:32:55;;;;;;;2.60;1.50;;;;;;;;;;5033623;28;21096;-72
2021/01/12 10:35:22;;;;;;;2.43;1.70;;;;;;;;;;5034028;28;20554;-73
2021/01/12 10:37:48;;;;;;;2.23;1.53;;;;;;;;;;5033828;28;20490;-72
2021/01/12 10:40:15;;;;;;;2.27;1.60;;;;;;;;;;5034070;28;20452;-72
2021/01/12 10:42:43;;;;;;;4.90;2.23;;;;;;;;;;5033926;28;20448;-71
2021/01/12 10:45:10;;;;;;;7.77;2.07;;;;;;;;;;5033769;28;20463;-71
2021/01/12 10:47:43;;;;;;;4.47;2.33;;;;;;;;;;5036138;28;20470;-71
2021/01/12 10:50:10;;;;;;;5.27;1.57;;;;;;;;;;5032511;28;20456;-70
2021/01/12 10:52:37;;;;;;;2.70;1.53;;;;;;;;;;5034129;28;20444;-71
2021/01/12 10:55:03;;;;;;;13.73;2.53;;;;;;;;;;5033289;28;20491;-70
2021/01/12 10:57:30;;;;;;;9.53;1.93;;;;;;;;;;5033651;28;20479;-70
2021/01/12 10:59:58;;;;;;;7.10;2.43;;;;;;;;;;5032755;28;20456;-71
2021/01/12 11:02:24;;;;;;;4.10;1.57;;;;;;;;;;5033388;28;20850;-70
2021/01/12 11:04:51;;;;;;;2.73;1.50;;;;;;;;;;5033329;28;20467;-70
2021/01/12 11:07:18;;;;;;;4.00;1.33;;;;;;;;;;5031674;28;20489;-70
2021/01/12 11:09:44;;;;;;;3.70;1.70;;;;;;;;;;5032993;28;20459;-70
2021/01/12 11:12:12;;;;;;;3.60;1.60;;;;;;;;;;5033232;28;20832;-71
2021/01/12 11:14:38;;;;;;;3.00;1.70;;;;;;;;;;5031787;28;20522;-71
2021/01/12 11:17:06;;;;;;;6.00;2.03;;;;;;;;;;5033173;28;20496;-67
2021/01/12 11:19:34;;;;;;;4.23;2.00;;;;;;;;;;5033219;28;21051;-71
2021/01/12 11:22:01;;;;;;;2.40;1.43;;;;;;;;;;5033170;28;20455;-70
2021/01/12 11:24:28;;;;;;;8.10;1.77;;;;;;;;;;5032886;28;20449;-71
2021/01/12 11:26:54;;;;;;;4.97;1.73;;;;;;;;;;5033311;28;20467;-70
2021/01/12 11:29:21;;;;;;;3.83;1.40;;;;;;;;;;5033560;28;20487;-71
2021/01/12 11:31:48;;;;;;;2.60;1.50;;;;;;;;;;5033520;28;20457;-71
2021/01/12 11:34:16;;;;;;;3.33;1.77;;;;;;;;;;5033509;28;20815;-71
2021/01/12 11:36:43;;;;;;;3.00;1.40;;;;;;;;;;5029035;28;20492;-71
2021/01/12 11:39:10;;;;;;;3.50;1.40;;;;;;;;;;5032860;28;20449;-71
2021/01/12 11:41:37;;;;;;;6.50;1.90;;;;;;;;;;5037588;28;20527;-71
2021/01/12 11:44:04;;;;;;;5.50;1.67;;;;;;;;;;5031517;28;20932;-70
2021/01/12 11:46:31;;;;;;;3.90;1.90;;;;;;;;;;5026098;28;20457;-70
2021/01/12 11:48:58;;;;;;;4.33;1.93;;;;;;;;;;5014868;28;20442;-70
2021/01/12 11:51:34;;;;;;;4.33;1.90;;;;;;;;;;5012817;28;20453;-70
2021/01/12 11:54:00;;;;;;;3.50;1.60;;;;;;;;;;5013234;28;20783;-70
2021/01/12 11:56:27;;;;;;;4.20;1.47;;;;;;;;;;5024253;28;20485;-70
2021/01/12 11:58:54;;;;;;;3.10;1.53;;;;;;;;;;5032793;28;20456;-70
2021/01/12 12:01:20;;;;;;;3.63;1.43;;;;;;;;;;5036606;28;20460;-70
2021/01/12 12:03:47;;;;;;;2.70;1.30;;;;;;;;;;5032932;28;20467;-70
2021/01/12 12:06:14;;;;;;;3.93;1.57;;;;;;;;;;5032353;28;20971;-70
2021/01/12 12:08:41;;;;;;;3.33;1.90;;;;;;;;;;5032553;28;20448;-70
2021/01/12 12:11:08;;;;;;;3.23;1.40;;;;;;;;;;5032732;28;20464;-70
2021/01/12 12:13:39;;;;;;;4.33;1.50;;;;;;;;;;5032638;28;20457;-70
2021/01/12 12:16:06;;;;;;;4.53;1.67;;;;;;;;;;5030779;28;20858;-70
2021/01/12 12:18:33;;;;;;;3.97;1.60;;;;;;;;;;5031180;28;20481;-70
2021/01/12 12:21:00;;;;;;;3.93;1.83;;;;;;;;;;5031479;28;20456;-70
2021/01/12 12:23:26;;;;;;;3.80;1.50;;;;;;;;;;5032495;28;20448;-73
2021/01/12 12:25:54;;;;;;;6.40;1.90;;;;;;;;;;5032799;28;20448;-67
2021/01/12 12:28:21;;;;;;;3.73;1.43;;;;;;;;;;5031613;28;20523;-71
2021/01/12 12:30:47;;;;;;;3.00;1.73;;;;;;;;;;5032956;28;20518;-70
2021/01/12 12:33:14;;;;;;;3.77;1.63;;;;;;;;;;5038793;28;20948;-70
2021/01/12 12:35:41;;;;;;;4.27;1.80;;;;;;;;;;5039852;28;21025;-71
2021/01/12 12:38:07;;;;;;;5.07;2.17;;;;;;;;;;5032004;28;20473;-70
2021/01/12 12:40:35;;;;;;;6.30;2.27;;;;;;;;;;5032138;28;20935;-70
2021/01/12 12:43:02;;;;;;;6.50;2.37;;;;;;;;;;5032383;28;20453;-70
2021/01/12 12:45:29;;;;;;;3.70;2.40;;;;;;;;;;5032476;28;20445;-70
2021/01/12 12:47:55;;;;;;;3.43;1.93;;;;;;;;;;5032391;28;20472;-70
2021/01/12 12:50:22;;;;;;;4.00;2.30;;;;;;;;;;5032275;28;20448;-70
2021/01/12 12:52:49;;;;;;;9.90;2.27;;;;;;;;;;5033511;28;20449;-70
2021/01/12 12:55:15;;;;;;;5.27;2.10;;;;;;;;;;5032163;28;20459;-71
2021/01/12 12:57:42;;;;;;;2.90;1.67;;;;;;;;;;5032094;28;20472;-70
2021/01/12 13:00:11;;;;;;;4.70;2.03;;;;;;;;;;5032862;28;20454;-71
2021/01/12 13:02:38;;;;;;;4.70;2.53;;;;;;;;;;5035294;28;20449;-70
2021/01/12 13:05:05;;;;;;;6.47;2.30;;;;;;;;;;5037032;28;20449;-70
2021/01/12 13:07:32;;;;;;;5.40;2.27;;;;;;;;;;5034811;28;20495;-70
2021/01/12 13:09:58;;;;;;;5.87;2.47;;;;;;;;;;5034639;28;20452;-69
2021/01/12 13:12:28;;;;;;;5.80;2.50;;;;;;;;;;5035174;28;20454;-70
2021/01/12 13:14:56;;;;;;;7.70;2.30;;;;;;;;;;5034908;28;20460;-70
2021/01/12 13:17:25;;;;;;;7.97;2.60;;;;;;;;;;5032513;28;20493;-69
2021/01/12 13:19:54;;;;;;;5.43;2.40;;;;;;;;;;5041063;28;20443;-70
2021/01/12 13:22:21;;;;;;;6.20;2.43;;;;;;;;;;5031321;28;20889;-69
2021/01/12 13:24:48;;;;;;;5.97;2.47;;;;;;;;;;5032103;28;20476;-70
2021/01/12 13:27:18;;;;;;;4.33;2.83;;;;;;;;;;5031506;28;20472;-69
2021/01/12 13:29:45;;;;;;;7.40;2.77;;;;;;;;;;5031794;28;20448;-70
2021/01/12 13:32:12;;;;;;;5.07;2.40;;;;;;;;;;5031766;28;20448;-71
2021/01/12 13:34:39;;;;;;;6.67;2.57;;;;;;;;;;5031895;28;20468;-70
2021/01/12 13:37:06;;;;;;;3.03;2.13;;;;;;;;;;5031659;28;20630;-71
2021/01/12 13:39:33;;;;;;;4.60;2.47;;;;;;;;;;5031514;28;20522;-70
2021/01/12 13:41:59;;;;;;;6.07;2.30;;;;;;;;;;5031516;28;20452;-70
2021/01/12 13:44:26;;;;;;;3.30;2.30;;;;;;;;;;5031809;28;20449;-70
2021/01/12 13:46:53;;;;;;;3.30;2.00;;;;;;;;;;5031777;28;20472;-71
2021/01/12 13:49:20;;;;;;;6.00;2.50;;;;;;;;;;5031695;28;20795;-70
2021/01/12 13:51:48;;;;;;;6.03;2.60;;;;;;;;;;5031469;28;20506;-70
2021/01/12 13:54:15;;;;;;;6.77;2.90;;;;;;;;;;5031748;28;20448;-71
2021/01/12 13:56:42;;;;;;;4.90;2.57;;;;;;;;;;5025395;28;20489;-70
2021/01/12 13:59:10;;;;;;;3.13;2.20;;;;;;;;;;5044381;28;20470;-69
2021/01/12 14:01:37;;;;;;;5.83;2.57;;;;;;;;;;5053138;28;20544;-71
2021/01/12 14:04:04;;;;;;;3.70;2.13;;;;;;;;;;5054970;28;20464;-68
2021/01/12 14:06:31;;;;;;;5.67;2.60;;;;;;;;;;5055447;28;20463;-68
2021/01/12 14:08:59;;;;;;;3.40;2.37;;;;;;;;;;5053693;28;20482;-68
2021/01/12 14:11:25;;;;;;;2.37;2.13;;;;;;;;;;5055720;28;20783;-71
2021/01/12 14:13:52;;;;;;;3.30;2.00;;;;;;;;;;5057529;28;20458;-69
2021/01/12 14:16:19;;;;;;;5.13;2.40;;;;;;;;;;5047354;28;20508;-70
2021/01/12 14:18:46;;;;;;;2.00;1.90;;;;;;;;;;5038792;28;20867;-70
2021/01/12 14:21:19;;;;;;;2.50;2.30;;;;;;;;;;5035507;28;20444;-71
2021/01/12 14:23:49;;;;;;;2.60;1.70;;;;;;;;;;5034759;28;20451;-71
2021/01/12 14:26:16;;;;;;;8.40;2.30;;;;;;;;;;5033498;28;20453;-71
2021/01/12 14:28:43;;;;;;;3.37;1.77;;;;;;;;;;5034841;28;20448;-71
2021/01/12 14:31:10;;;;;;;2.30;2.20;;;;;;;;;;5034563;28;20452;-73
2021/01/12 14:33:38;;;;;;;2.90;2.60;;;;;;;;;;5034526;28;20445;-74